sensor_id;sensor_type;location;lat;lon;timestamp;pressure;altitude;pressure_sealevel;temperature;humidity
4705;BME280;2366;51.332;6.610;2022-12-18T00:01:42;102750.66;;;-1.67;67.82
4705;BME280;2366;51.332;6.610;2022-12-18T00:04:12;102747.16;;;-1.67;67.82
4705;BME280;2366;51.332;6.610;2022-12-18T00:06:40;102739.25;;;-1.72;67.95
4705;BME280;2366;51.332;6.610;2022-12-18T00:09:05;102739.31;;;-1.70;68.39
4705;BME280;2366;51.332;6.610;2022-12-18T00:11:31;102738.47;;;-1.69;67.83
4705;BME280;2366;51.332;6.610;2022-12-18T00:13:58;102738.34;;;-1.75;67.33
4705;BME280;2366;51.332;6.610;2022-12-18T00:16:25;102748.59;;;-1.81;68.26
4705;BME280;2366;51.332;6.610;2022-12-18T00:18:54;102755.34;;;-1.90;68.32
4705;BME280;2366;51.332;6.610;2022-12-18T00:21:20;102756.38;;;-1.83;68.10
4705;BME280;2366;51.332;6.610;2022-12-18T00:23:47;102748.56;;;-1.83;67.77
4705;BME280;2366;51.332;6.610;2022-12-18T00:26:18;102734.63;;;-1.85;68.32
4705;BME280;2366;51.332;6.610;2022-12-18T00:28:44;102734.59;;;-1.87;68.52
4705;BME280;2366;51.332;6.610;2022-12-18T00:31:19;102738.94;;;-1.87;68.31
4705;BME280;2366;51.332;6.610;2022-12-18T00:33:45;102733.72;;;-1.89;68.15
4705;BME280;2366;51.332;6.610;2022-12-18T00:36:13;102734.53;;;-1.90;68.24
4705;BME280;2366;51.332;6.610;2022-12-18T00:38:39;102728.47;;;-1.90;68.44
4705;BME280;2366;51.332;6.610;2022-12-18T00:41:06;102726.09;;;-1.79;68.68
4705;BME280;2366;51.332;6.610;2022-12-18T00:43:31;102727.84;;;-1.78;68.61
4705;BME280;2366;51.332;6.610;2022-12-18T00:45:57;102726.97;;;-1.79;68.29
4705;BME280;2366;51.332;6.610;2022-12-18T00:48:22;102721.72;;;-1.82;68.20
4705;BME280;2366;51.332;6.610;2022-12-18T00:50:49;102715.56;;;-1.86;68.32
4705;BME280;2366;51.332;6.610;2022-12-18T00:53:15;102720.75;;;-1.86;68.79
4705;BME280;2366;51.332;6.610;2022-12-18T00:55:40;102713.00;;;-1.84;68.52
4705;BME280;2366;51.332;6.610;2022-12-18T00:58:07;102721.78;;;-1.79;68.43
4705;BME280;2366;51.332;6.610;2022-12-18T01:00:32;102738.38;;;-1.72;68.24
4705;BME280;2366;51.332;6.610;2022-12-18T01:02:57;102721.97;;;-1.71;68.17
4705;BME280;2366;51.332;6.610;2022-12-18T01:05:23;102715.78;;;-1.75;67.93
4705;BME280;2366;51.332;6.610;2022-12-18T01:07:49;102706.31;;;-1.73;68.04
4705;BME280;2366;51.332;6.610;2022-12-18T01:10:14;102706.44;;;-1.67;68.00
4705;BME280;2366;51.332;6.610;2022-12-18T01:12:40;102713.34;;;-1.69;67.57
4705;BME280;2366;51.332;6.610;2022-12-18T01:15:06;102721.97;;;-1.70;67.53
4705;BME280;2366;51.332;6.610;2022-12-18T01:17:32;102719.47;;;-1.65;67.72
4705;BME280;2366;51.332;6.610;2022-12-18T01:19:58;102714.34;;;-1.62;67.57
4705;BME280;2366;51.332;6.610;2022-12-18T01:22:23;102728.25;;;-1.60;67.56
4705;BME280;2366;51.332;6.610;2022-12-18T01:24:49;102728.38;;;-1.54;66.81
4705;BME280;2366;51.332;6.610;2022-12-18T01:27:14;102723.91;;;-1.59;67.17
4705;BME280;2366;51.332;6.610;2022-12-18T01:29:40;102720.44;;;-1.60;67.13
4705;BME280;2366;51.332;6.610;2022-12-18T01:32:05;102721.28;;;-1.62;66.84
4705;BME280;2366;51.332;6.610;2022-12-18T01:34:30;102719.38;;;-1.70;67.01
4705;BME280;2366;51.332;6.610;2022-12-18T01:36:56;102720.31;;;-1.66;66.81
4705;BME280;2366;51.332;6.610;2022-12-18T01:39:21;102720.34;;;-1.64;66.77
4705;BME280;2366;51.332;6.610;2022-12-18T01:41:46;102709.88;;;-1.68;67.08
4705;BME280;2366;51.332;6.610;2022-12-18T01:44:57;102710.72;;;-1.69;67.25
4705;BME280;2366;51.332;6.610;2022-12-18T01:50:18;102722.88;;;-1.68;67.10
4705;BME280;2366;51.332;6.610;2022-12-18T01:52:49;102715.03;;;-1.71;66.77
4705;BME280;2366;51.332;6.610;2022-12-18T01:55:19;102721.72;;;-1.80;67.20
4705;BME280;2366;51.332;6.610;2022-12-18T01:57:46;102730.31;;;-1.84;67.65
4705;BME280;2366;51.332;6.610;2022-12-18T02:00:18;102722.50;;;-1.84;67.47
4705;BME280;2366;51.332;6.610;2022-12-18T02:02:45;102736.41;;;-1.84;67.68
4705;BME280;2366;51.332;6.610;2022-12-18T02:05:13;102736.44;;;-1.82;67.71
4705;BME280;2366;51.332;6.610;2022-12-18T02:08:08;102734.72;;;-1.82;67.63
4705;BME280;2366;51.332;6.610;2022-12-18T02:13:50;102719.91;;;-1.86;67.29
4705;BME280;2366;51.332;6.610;2022-12-18T02:16:24;102733.59;;;-1.93;67.68
4705;BME280;2366;51.332;6.610;2022-12-18T02:18:58;102733.59;;;-1.93;67.75
4705;BME280;2366;51.332;6.610;2022-12-18T02:21:45;102730.97;;;-1.95;67.45
4705;BME280;2366;51.332;6.610;2022-12-18T02:24:28;102723.13;;;-1.96;67.63
4705;BME280;2366;51.332;6.610;2022-12-18T02:27:00;102728.28;;;-1.98;67.71
4705;BME280;2366;51.332;6.610;2022-12-18T02:29:38;102725.81;;;-1.92;67.96
4705;BME280;2366;51.332;6.610;2022-12-18T02:32:08;102715.38;;;-1.95;67.56
4705;BME280;2366;51.332;6.610;2022-12-18T02:34:38;102724.03;;;-1.94;67.73
4705;BME280;2366;51.332;6.610;2022-12-18T02:37:06;102716.09;;;-2.00;67.85
4705;BME280;2366;51.332;6.610;2022-12-18T02:39:34;102718.59;;;-2.05;67.58
4705;BME280;2366;51.332;6.610;2022-12-18T02:42:01;102721.09;;;-2.10;67.59
4705;BME280;2366;51.332;6.610;2022-12-18T02:44:33;102719.22;;;-2.17;67.53
4705;BME280;2366;51.332;6.610;2022-12-18T02:46:58;102722.59;;;-2.21;67.78
4705;BME280;2366;51.332;6.610;2022-12-18T02:49:40;102718.31;;;-2.19;68.53
4705;BME280;2366;51.332;6.610;2022-12-18T02:52:44;102716.78;;;-2.09;68.43
4705;BME280;2366;51.332;6.610;2022-12-18T02:58:01;102710.03;;;-2.01;68.56
4705;BME280;2366;51.332;6.610;2022-12-18T03:03:22;102727.47;;;-1.97;68.54
4705;BME280;2366;51.332;6.610;2022-12-18T03:06:02;102727.47;;;-1.95;67.96
4705;BME280;2366;51.332;6.610;2022-12-18T03:08:33;102718.84;;;-1.94;68.30
4705;BME280;2366;51.332;6.610;2022-12-18T03:11:07;102708.56;;;-1.88;68.05
4705;BME280;2366;51.332;6.610;2022-12-18T03:13:37;102701.59;;;-1.89;68.27
4705;BME280;2366;51.332;6.610;2022-12-18T03:16:07;102701.75;;;-1.83;68.21
4705;BME280;2366;51.332;6.610;2022-12-18T03:18:56;102705.47;;;-1.70;67.75
4705;BME280;2366;51.332;6.610;2022-12-18T03:21:28;102702.06;;;-1.69;67.82
4705;BME280;2366;51.332;6.610;2022-12-18T03:23:56;102691.75;;;-1.64;67.29
4705;BME280;2366;51.332;6.610;2022-12-18T03:26:24;102694.38;;;-1.61;67.44
4705;BME280;2366;51.332;6.610;2022-12-18T03:28:53;102688.38;;;-1.59;66.83
4705;BME280;2366;51.332;6.610;2022-12-18T03:31:23;102694.31;;;-1.66;67.27
4705;BME280;2366;51.332;6.610;2022-12-18T03:33:55;102696.91;;;-1.66;67.32
4705;BME280;2366;51.332;6.610;2022-12-18T03:36:22;102696.03;;;-1.67;67.37
4705;BME280;2366;51.332;6.610;2022-12-18T03:38:48;102702.09;;;-1.66;67.22
4705;BME280;2366;51.332;6.610;2022-12-18T03:44:49;102699.47;;;-1.68;67.18
4705;BME280;2366;51.332;6.610;2022-12-18T03:52:38;102692.44;;;-1.72;67.41
4705;BME280;2366;51.332;6.610;2022-12-18T03:55:06;102697.72;;;-1.69;67.39
4705;BME280;2366;51.332;6.610;2022-12-18T03:57:32;102693.34;;;-1.70;67.46
4705;BME280;2366;51.332;6.610;2022-12-18T04:00:11;102683.13;;;-1.62;67.44
4705;BME280;2366;51.332;6.610;2022-12-18T04:02:42;102671.84;;;-1.61;66.96
4705;BME280;2366;51.332;6.610;2022-12-18T04:05:09;102679.72;;;-1.56;67.16
4705;BME280;2366;51.332;6.610;2022-12-18T04:07:36;102670.19;;;-1.57;67.30
4705;BME280;2366;51.332;6.610;2022-12-18T04:10:05;102667.66;;;-1.53;66.94
4705;BME280;2366;51.332;6.610;2022-12-18T04:12:31;102669.44;;;-1.50;66.76
4705;BME280;2366;51.332;6.610;2022-12-18T04:14:57;102674.63;;;-1.53;66.66
4705;BME280;2366;51.332;6.610;2022-12-18T04:17:22;102666.72;;;-1.56;66.99
4705;BME280;2366;51.332;6.610;2022-12-18T04:19:48;102677.09;;;-1.59;66.63
4705;BME280;2366;51.332;6.610;2022-12-18T04:22:14;102673.63;;;-1.60;66.98
4705;BME280;2366;51.332;6.610;2022-12-18T04:24:39;102668.53;;;-1.52;66.85
4705;BME280;2366;51.332;6.610;2022-12-18T04:27:06;102666.16;;;-1.43;66.24
4705;BME280;2366;51.332;6.610;2022-12-18T04:29:31;102669.56;;;-1.44;66.41
4705;BME280;2366;51.332;6.610;2022-12-18T04:31:56;102678.16;;;-1.48;66.44
4705;BME280;2366;51.332;6.610;2022-12-18T04:34:22;102674.63;;;-1.53;66.52
4705;BME280;2366;51.332;6.610;2022-12-18T04:36:47;102667.72;;;-1.51;66.73
4705;BME280;2366;51.332;6.610;2022-12-18T04:39:13;102664.31;;;-1.47;66.46
4705;BME280;2366;51.332;6.610;2022-12-18T04:41:39;102661.66;;;-1.50;66.49
4705;BME280;2366;51.332;6.610;2022-12-18T04:44:04;102660.97;;;-1.40;66.58
4705;BME280;2366;51.332;6.610;2022-12-18T04:46:29;102667.09;;;-1.38;66.28
4705;BME280;2366;51.332;6.610;2022-12-18T04:48:55;102661.72;;;-1.47;65.82
4705;BME280;2366;51.332;6.610;2022-12-18T04:51:20;102657.25;;;-1.53;66.65
4705;BME280;2366;51.332;6.610;2022-12-18T04:53:45;102654.63;;;-1.54;66.86
4705;BME280;2366;51.332;6.610;2022-12-18T04:56:13;102653.72;;;-1.56;66.72
4705;BME280;2366;51.332;6.610;2022-12-18T04:58:40;102658.00;;;-1.58;66.91
4705;BME280;2366;51.332;6.610;2022-12-18T05:01:06;102649.25;;;-1.63;67.18
4705;BME280;2366;51.332;6.610;2022-12-18T05:03:32;102645.78;;;-1.64;66.98
4705;BME280;2366;51.332;6.610;2022-12-18T05:05:58;102632.81;;;-1.62;66.97
4705;BME280;2366;51.332;6.610;2022-12-18T05:08:24;102639.66;;;-1.66;67.03
4705;BME280;2366;51.332;6.610;2022-12-18T05:10:49;102639.63;;;-1.69;66.74
4705;BME280;2366;51.332;6.610;2022-12-18T05:13:14;102642.03;;;-1.77;67.30
4705;BME280;2366;51.332;6.610;2022-12-18T05:15:40;102635.97;;;-1.77;67.32
4705;BME280;2366;51.332;6.610;2022-12-18T05:18:06;102634.25;;;-1.77;67.46
4705;BME280;2366;51.332;6.610;2022-12-18T05:20:32;102638.53;;;-1.79;67.73
4705;BME280;2366;51.332;6.610;2022-12-18T05:22:58;102648.13;;;-1.76;67.32
4705;BME280;2366;51.332;6.610;2022-12-18T05:25:23;102642.78;;;-1.84;67.15
4705;BME280;2366;51.332;6.610;2022-12-18T05:27:49;102642.69;;;-1.87;67.84
4705;BME280;2366;51.332;6.610;2022-12-18T05:30:15;102643.47;;;-1.91;67.36
4705;BME280;2366;51.332;6.610;2022-12-18T05:32:41;102659.75;;;-2.00;67.25
4705;BME280;2366;51.332;6.610;2022-12-18T05:35:08;102663.91;;;-2.10;67.97
4705;BME280;2366;51.332;6.610;2022-12-18T05:37:34;102666.34;;;-2.16;68.05
4705;BME280;2366;51.332;6.610;2022-12-18T05:40:00;102671.38;;;-2.23;67.97
4705;BME280;2366;51.332;6.610;2022-12-18T05:42:26;102662.56;;;-2.32;68.32
4705;BME280;2366;51.332;6.610;2022-12-18T05:44:51;102674.78;;;-2.28;68.77
4705;BME280;2366;51.332;6.610;2022-12-18T05:47:16;102683.44;;;-2.27;68.78
4705;BME280;2366;51.332;6.610;2022-12-18T05:49:42;102685.94;;;-2.30;68.43
4705;BME280;2366;51.332;6.610;2022-12-18T05:52:07;102691.25;;;-2.27;68.87
4705;BME280;2366;51.332;6.610;2022-12-18T05:54:32;102691.19;;;-2.29;68.39
4705;BME280;2366;51.332;6.610;2022-12-18T05:56:58;102699.03;;;-2.27;68.85
4705;BME280;2366;51.332;6.610;2022-12-18T05:59:23;102700.09;;;-2.19;69.02
4705;BME280;2366;51.332;6.610;2022-12-18T06:01:49;102707.22;;;-2.10;68.90
4705;BME280;2366;51.332;6.610;2022-12-18T06:04:14;102708.91;;;-2.12;68.44
4705;BME280;2366;51.332;6.610;2022-12-18T06:06:40;102710.63;;;-2.13;68.56
4705;BME280;2366;51.332;6.610;2022-12-18T06:09:05;102713.31;;;-2.10;68.61
4705;BME280;2366;51.332;6.610;2022-12-18T06:11:34;102719.44;;;-2.06;68.56
4705;BME280;2366;51.332;6.610;2022-12-18T06:14:00;102717.06;;;-1.97;68.60
4705;BME280;2366;51.332;6.610;2022-12-18T06:16:27;102712.06;;;-1.88;68.39
4705;BME280;2366;51.332;6.610;2022-12-18T06:18:52;102718.13;;;-1.87;68.16
4705;BME280;2366;51.332;6.610;2022-12-18T06:21:18;102705.22;;;-1.82;68.26
4705;BME280;2366;51.332;6.610;2022-12-18T06:23:43;102710.63;;;-1.73;67.84
4705;BME280;2366;51.332;6.610;2022-12-18T06:26:11;102702.09;;;-1.66;67.64
4705;BME280;2366;51.332;6.610;2022-12-18T06:28:36;102693.38;;;-1.68;67.71
4705;BME280;2366;51.332;6.610;2022-12-18T06:31:03;102697.72;;;-1.69;67.06
4705;BME280;2366;51.332;6.610;2022-12-18T06:33:29;102692.56;;;-1.66;67.62
4705;BME280;2366;51.332;6.610;2022-12-18T06:36:00;102675.34;;;-1.60;67.59
4705;BME280;2366;51.332;6.610;2022-12-18T06:38:26;102671.22;;;-1.49;66.58
4705;BME280;2366;51.332;6.610;2022-12-18T06:40:52;102664.25;;;-1.50;66.35
4705;BME280;2366;51.332;6.610;2022-12-18T06:43:17;102662.59;;;-1.47;66.52
4705;BME280;2366;51.332;6.610;2022-12-18T06:45:42;102663.56;;;-1.41;66.38
4705;BME280;2366;51.332;6.610;2022-12-18T06:48:08;102657.44;;;-1.43;65.92
4705;BME280;2366;51.332;6.610;2022-12-18T06:50:33;102650.31;;;-1.54;66.50
4705;BME280;2366;51.332;6.610;2022-12-18T06:52:59;102655.69;;;-1.45;66.32
4705;BME280;2366;51.332;6.610;2022-12-18T06:55:24;102656.66;;;-1.41;66.13
4705;BME280;2366;51.332;6.610;2022-12-18T06:57:50;102654.81;;;-1.45;66.00
4705;BME280;2366;51.332;6.610;2022-12-18T07:00:15;102658.44;;;-1.37;65.75
4705;BME280;2366;51.332;6.610;2022-12-18T07:02:40;102655.66;;;-1.46;65.93
4705;BME280;2366;51.332;6.610;2022-12-18T07:05:06;102651.25;;;-1.50;66.06
4705;BME280;2366;51.332;6.610;2022-12-18T07:07:33;102651.13;;;-1.56;66.21
4705;BME280;2366;51.332;6.610;2022-12-18T07:09:58;102652.09;;;-1.51;66.44
4705;BME280;2366;51.332;6.610;2022-12-18T07:12:24;102652.25;;;-1.42;66.17
4705;BME280;2366;51.332;6.610;2022-12-18T07:14:49;102647.97;;;-1.40;66.14
4705;BME280;2366;51.332;6.610;2022-12-18T07:17:14;102649.78;;;-1.36;65.71
4705;BME280;2366;51.332;6.610;2022-12-18T07:19:40;102656.81;;;-1.32;65.41
4705;BME280;2366;51.332;6.610;2022-12-18T07:22:05;102660.25;;;-1.33;65.45
4705;BME280;2366;51.332;6.610;2022-12-18T07:24:32;102658.53;;;-1.31;65.68
4705;BME280;2366;51.332;6.610;2022-12-18T07:26:58;102660.34;;;-1.27;65.35
4705;BME280;2366;51.332;6.610;2022-12-18T07:29:23;102656.97;;;-1.22;65.55
4705;BME280;2366;51.332;6.610;2022-12-18T07:31:49;102649.97;;;-1.25;65.64
4705;BME280;2366;51.332;6.610;2022-12-18T07:34:14;102648.38;;;-1.18;65.33
4705;BME280;2366;51.332;6.610;2022-12-18T07:36:40;102651.88;;;-1.16;65.16
4705;BME280;2366;51.332;6.610;2022-12-18T07:39:06;102642.56;;;-1.04;64.83
4705;BME280;2366;51.332;6.610;2022-12-18T07:41:31;102645.97;;;-1.08;64.86
4705;BME280;2366;51.332;6.610;2022-12-18T07:43:56;102651.19;;;-1.06;64.95
4705;BME280;2366;51.332;6.610;2022-12-18T07:46:22;102658.09;;;-1.07;65.16
4705;BME280;2366;51.332;6.610;2022-12-18T07:48:48;102650.38;;;-1.02;64.96
4705;BME280;2366;51.332;6.610;2022-12-18T07:51:13;102657.19;;;-1.10;64.81
4705;BME280;2366;51.332;6.610;2022-12-18T07:53:39;102655.66;;;-0.99;64.57
4705;BME280;2366;51.332;6.610;2022-12-18T07:56:07;102653.16;;;-0.91;64.39
4705;BME280;2366;51.332;6.610;2022-12-18T07:58:34;102633.47;;;-0.75;64.07
4705;BME280;2366;51.332;6.610;2022-12-18T08:03:30;102622.38;;;-0.62;63.80
4705;BME280;2366;51.332;6.610;2022-12-18T08:05:59;102625.94;;;-0.58;63.32
4705;BME280;2366;51.332;6.610;2022-12-18T08:08:25;102619.78;;;-0.62;63.47
4705;BME280;2366;51.332;6.610;2022-12-18T08:10:50;102611.09;;;-0.61;62.88
4705;BME280;2366;51.332;6.610;2022-12-18T08:13:15;102618.25;;;-0.48;62.99
4705;BME280;2366;51.332;6.610;2022-12-18T08:15:41;102602.84;;;-0.32;62.82
4705;BME280;2366;51.332;6.610;2022-12-18T08:18:06;102603.75;;;-0.27;62.39
4705;BME280;2366;51.332;6.610;2022-12-18T08:20:31;102596.13;;;-0.15;61.78
4705;BME280;2366;51.332;6.610;2022-12-18T08:22:57;102587.59;;;0.02;61.47
4705;BME280;2366;51.332;6.610;2022-12-18T08:25:23;102576.50;;;0.19;61.19
4705;BME280;2366;51.332;6.610;2022-12-18T08:27:48;102589.66;;;0.27;60.21
4705;BME280;2366;51.332;6.610;2022-12-18T08:30:14;102586.31;;;0.40;60.62
4705;BME280;2366;51.332;6.610;2022-12-18T08:32:39;102589.84;;;0.46;59.95
4705;BME280;2366;51.332;6.610;2022-12-18T08:35:05;102588.47;;;0.85;59.50
4705;BME280;2366;51.332;6.610;2022-12-18T08:37:30;102586.44;;;1.68;57.23
4705;BME280;2366;51.332;6.610;2022-12-18T08:39:56;102590.84;;;1.75;55.89
4705;BME280;2366;51.332;6.610;2022-12-18T08:42:21;102590.91;;;1.87;56.44
4705;BME280;2366;51.332;6.610;2022-12-18T08:45:05;102584.84;;;2.03;56.02
4705;BME280;2366;51.332;6.610;2022-12-18T08:47:31;102584.06;;;2.26;55.39
4705;BME280;2366;51.332;6.610;2022-12-18T08:49:56;102592.03;;;2.89;53.78
4705;BME280;2366;51.332;6.610;2022-12-18T08:52:22;102588.53;;;3.13;52.45
4705;BME280;2366;51.332;6.610;2022-12-18T08:54:47;102581.53;;;3.14;52.05
4705;BME280;2366;51.332;6.610;2022-12-18T08:57:13;102576.22;;;3.55;50.82
4705;BME280;2366;51.332;6.610;2022-12-18T08:59:38;102588.47;;;3.52;50.55
4705;BME280;2366;51.332;6.610;2022-12-18T09:02:03;102594.63;;;3.24;51.05
4705;BME280;2366;51.332;6.610;2022-12-18T09:04:29;102585.00;;;3.14;51.68
4705;BME280;2366;51.332;6.610;2022-12-18T09:06:54;102574.56;;;2.76;51.36
4705;BME280;2366;51.332;6.610;2022-12-18T09:09:19;102570.16;;;2.45;53.59
4705;BME280;2366;51.332;6.610;2022-12-18T09:11:45;102572.69;;;2.21;53.94
4705;BME280;2366;51.332;6.610;2022-12-18T09:14:10;102578.75;;;1.95;54.39
4705;BME280;2366;51.332;6.610;2022-12-18T09:16:35;102576.94;;;1.85;54.95
4705;BME280;2366;51.332;6.610;2022-12-18T09:19:03;102578.63;;;1.77;55.02
4705;BME280;2366;51.332;6.610;2022-12-18T09:21:31;102573.53;;;2.09;54.91
4705;BME280;2366;51.332;6.610;2022-12-18T09:23:57;102582.41;;;2.96;52.67
4705;BME280;2366;51.332;6.610;2022-12-18T09:26:23;102578.88;;;2.54;52.10
4705;BME280;2366;51.332;6.610;2022-12-18T09:28:49;102571.81;;;2.13;53.50
4705;BME280;2366;51.332;6.610;2022-12-18T09:31:16;102569.13;;;1.91;54.32
4705;BME280;2366;51.332;6.610;2022-12-18T09:33:41;102565.59;;;1.88;54.23
4705;BME280;2366;51.332;6.610;2022-12-18T09:36:14;102566.47;;;1.88;54.23
4705;BME280;2366;51.332;6.610;2022-12-18T09:38:41;102548.19;;;1.87;53.93
4705;BME280;2366;51.332;6.610;2022-12-18T09:47:50;102555.09;;;1.75;54.55
4705;BME280;2366;51.332;6.610;2022-12-18T09:49:55;102562.16;;;1.96;53.76
4705;BME280;2366;51.332;6.610;2022-12-18T09:52:39;102552.56;;;1.98;54.05
4705;BME280;2366;51.332;6.610;2022-12-18T09:55:40;102531.63;;;1.98;53.26
4705;BME280;2366;51.332;6.610;2022-12-18T09:58:30;102534.28;;;2.09;53.73
4705;BME280;2366;51.332;6.610;2022-12-18T10:00:57;102535.13;;;2.00;53.70
4705;BME280;2366;51.332;6.610;2022-12-18T10:03:22;102536.91;;;2.11;53.25
4705;BME280;2366;51.332;6.610;2022-12-18T10:06:11;102536.06;;;2.15;52.93
4705;BME280;2366;51.332;6.610;2022-12-18T10:16:43;102526.47;;;2.26;52.43
4705;BME280;2366;51.332;6.610;2022-12-18T10:19:36;102524.72;;;2.40;52.57
4705;BME280;2366;51.332;6.610;2022-12-18T10:22:20;102516.88;;;2.36;52.52
4705;BME280;2366;51.332;6.610;2022-12-18T10:27:26;102509.94;;;2.72;51.85
4705;BME280;2366;51.332;6.610;2022-12-18T10:29:52;102495.94;;;2.68;51.41
4705;BME280;2366;51.332;6.610;2022-12-18T10:32:27;102495.06;;;2.81;51.99
4705;BME280;2366;51.332;6.610;2022-12-18T10:34:55;102494.19;;;2.81;51.22
4705;BME280;2366;51.332;6.610;2022-12-18T10:37:24;102499.44;;;2.92;51.38
4705;BME280;2366;51.332;6.610;2022-12-18T10:42:30;102497.63;;;3.12;51.03
4705;BME280;2366;51.332;6.610;2022-12-18T10:45:05;102494.19;;;2.99;50.85
4705;BME280;2366;51.332;6.610;2022-12-18T10:47:33;102485.44;;;3.00;50.77
4705;BME280;2366;51.332;6.610;2022-12-18T10:49:59;102479.34;;;2.84;50.88
4705;BME280;2366;51.332;6.610;2022-12-18T10:52:25;102465.34;;;2.99;50.69
4705;BME280;2366;51.332;6.610;2022-12-18T10:54:54;102467.09;;;2.97;50.64
4705;BME280;2366;51.332;6.610;2022-12-18T10:59:54;102466.19;;;3.12;50.17
4705;BME280;2366;51.332;6.610;2022-12-18T11:02:29;102460.06;;;3.10;50.30
4705;BME280;2366;51.332;6.610;2022-12-18T11:04:58;102460.03;;;3.16;50.70
4705;BME280;2366;51.332;6.610;2022-12-18T11:07:23;102460.06;;;3.13;50.47
4705;BME280;2366;51.332;6.610;2022-12-18T11:10:00;102456.56;;;3.17;50.13
4705;BME280;2366;51.332;6.610;2022-12-18T11:12:27;102455.66;;;3.23;50.05
4705;BME280;2366;51.332;6.610;2022-12-18T11:14:54;102459.16;;;3.26;50.00
4705;BME280;2366;51.332;6.610;2022-12-18T11:17:28;102452.13;;;3.38;50.41
4705;BME280;2366;51.332;6.610;2022-12-18T11:22:32;102443.44;;;3.23;50.00
4705;BME280;2366;51.332;6.610;2022-12-18T11:25:01;102435.50;;;3.36;49.84
4705;BME280;2366;51.332;6.610;2022-12-18T11:27:28;102435.53;;;3.34;50.14
4705;BME280;2366;51.332;6.610;2022-12-18T11:30:08;102439.91;;;3.29;50.41
4705;BME280;2366;51.332;6.610;2022-12-18T11:32:37;102426.75;;;3.41;50.35
4705;BME280;2366;51.332;6.610;2022-12-18T11:37:29;102415.41;;;3.41;49.86
4705;BME280;2366;51.332;6.610;2022-12-18T11:39:59;102410.97;;;3.52;48.86
4705;BME280;2366;51.332;6.610;2022-12-18T11:42:44;102411.09;;;3.26;50.19
4705;BME280;2366;51.332;6.610;2022-12-18T11:47:44;102411.06;;;3.31;49.93
4705;BME280;2366;51.332;6.610;2022-12-18T11:52:43;102402.31;;;3.33;50.02
4705;BME280;2366;51.332;6.610;2022-12-18T11:55:14;102397.09;;;3.28;49.83
4705;BME280;2366;51.332;6.610;2022-12-18T11:57:44;102384.03;;;3.12;50.53
4705;BME280;2366;51.332;6.610;2022-12-18T12:00:18;102391.03;;;3.16;49.85
4705;BME280;2366;51.332;6.610;2022-12-18T12:05:40;102379.63;;;3.24;49.69
4705;BME280;2366;51.332;6.610;2022-12-18T12:08:18;102386.66;;;3.16;50.50
4705;BME280;2366;51.332;6.610;2022-12-18T12:10:56;102367.38;;;3.26;50.16
4705;BME280;2366;51.332;6.610;2022-12-18T12:16:17;102371.66;;;3.46;49.34
4705;BME280;2366;51.332;6.610;2022-12-18T12:21:35;102376.97;;;3.37;49.30
4705;BME280;2366;51.332;6.610;2022-12-18T12:26:53;102366.38;;;3.49;49.92
4705;BME280;2366;51.332;6.610;2022-12-18T12:34:49;102357.63;;;3.53;49.93
4705;BME280;2366;51.332;6.610;2022-12-18T12:40:05;102333.97;;;3.59;49.27
4705;BME280;2366;51.332;6.610;2022-12-18T12:42:47;102335.00;;;3.35;49.86
4705;BME280;2366;51.332;6.610;2022-12-18T12:45:51;102348.13;;;3.31;49.71
4705;BME280;2366;51.332;6.610;2022-12-18T12:48:46;102350.81;;;3.20;49.83
4705;BME280;2366;51.332;6.610;2022-12-18T12:51:17;102348.97;;;3.39;49.60
4705;BME280;2366;51.332;6.610;2022-12-18T12:53:44;102353.28;;;3.46;49.76
4705;BME280;2366;51.332;6.610;2022-12-18T12:56:12;102360.47;;;3.13;50.05
4705;BME280;2366;51.332;6.610;2022-12-18T12:59:03;102350.84;;;3.17;49.72
4705;BME280;2366;51.332;6.610;2022-12-18T13:02:12;102345.63;;;3.07;50.86
4705;BME280;2366;51.332;6.610;2022-12-18T13:04:49;102349.94;;;3.19;50.47
4705;BME280;2366;51.332;6.610;2022-12-18T13:07:30;102339.47;;;3.19;50.54
4705;BME280;2366;51.332;6.610;2022-12-18T13:15:33;102329.00;;;3.12;49.64
4705;BME280;2366;51.332;6.610;2022-12-18T13:20:41;102299.31;;;3.13;50.05
4705;BME280;2366;51.332;6.610;2022-12-18T13:25:58;102293.13;;;3.18;50.63
4705;BME280;2366;51.332;6.610;2022-12-18T13:30:58;102285.19;;;3.37;50.65
4705;BME280;2366;51.332;6.610;2022-12-18T13:33:43;102286.94;;;3.35;50.75
4705;BME280;2366;51.332;6.610;2022-12-18T13:36:29;102285.22;;;3.31;50.54
4705;BME280;2366;51.332;6.610;2022-12-18T13:41:42;102295.75;;;3.21;51.34
4705;BME280;2366;51.332;6.610;2022-12-18T13:47:00;102274.78;;;3.18;50.69
4705;BME280;2366;51.332;6.610;2022-12-18T13:49:38;102263.47;;;3.15;51.10
4705;BME280;2366;51.332;6.610;2022-12-18T13:52:34;102260.00;;;3.08;51.07
4705;BME280;2366;51.332;6.610;2022-12-18T13:55:06;102263.50;;;3.08;51.38
4705;BME280;2366;51.332;6.610;2022-12-18T13:57:35;102260.94;;;2.98;51.43
4705;BME280;2366;51.332;6.610;2022-12-18T14:02:44;102264.41;;;2.97;51.42
4705;BME280;2366;51.332;6.610;2022-12-18T14:07:46;102254.78;;;2.99;50.76
4705;BME280;2366;51.332;6.610;2022-12-18T14:10:15;102248.69;;;2.97;50.74
4705;BME280;2366;51.332;6.610;2022-12-18T14:12:45;102246.19;;;2.78;51.58
4705;BME280;2366;51.332;6.610;2022-12-18T14:15:31;102246.19;;;2.71;51.97
4705;BME280;2366;51.332;6.610;2022-12-18T14:18:00;102246.22;;;2.66;51.50
4705;BME280;2366;51.332;6.610;2022-12-18T14:20:31;102233.91;;;2.82;51.70
4705;BME280;2366;51.332;6.610;2022-12-18T14:22:58;102235.66;;;2.83;51.15
4705;BME280;2366;51.332;6.610;2022-12-18T14:25:30;102244.44;;;2.73;51.34
4705;BME280;2366;51.332;6.610;2022-12-18T14:30:39;102240.94;;;2.80;51.21
4705;BME280;2366;51.332;6.610;2022-12-18T14:35:35;102234.84;;;2.76;51.47
4705;BME280;2366;51.332;6.610;2022-12-18T14:38:21;102244.50;;;2.63;52.11
4705;BME280;2366;51.332;6.610;2022-12-18T14:41:04;102237.47;;;2.72;51.31
4705;BME280;2366;51.332;6.610;2022-12-18T14:43:35;102241.00;;;2.67;51.53
4705;BME280;2366;51.332;6.610;2022-12-18T14:46:01;102231.38;;;2.62;52.03
4705;BME280;2366;51.332;6.610;2022-12-18T14:48:36;102228.75;;;2.68;51.68
4705;BME280;2366;51.332;6.610;2022-12-18T14:51:14;102220.03;;;2.66;51.57
4705;BME280;2366;51.332;6.610;2022-12-18T14:53:44;102216.56;;;2.61;51.97
4705;BME280;2366;51.332;6.610;2022-12-18T14:58:39;102220.03;;;2.66;52.35
4705;BME280;2366;51.332;6.610;2022-12-18T15:01:04;102210.44;;;2.63;52.23
4705;BME280;2366;51.332;6.610;2022-12-18T15:03:30;102219.25;;;2.52;52.41
4705;BME280;2366;51.332;6.610;2022-12-18T15:05:55;102217.47;;;2.51;52.25
4705;BME280;2366;51.332;6.610;2022-12-18T15:08:35;102213.09;;;2.60;52.74
4705;BME280;2366;51.332;6.610;2022-12-18T15:11:01;102217.47;;;2.51;52.43
4705;BME280;2366;51.332;6.610;2022-12-18T15:13:30;102208.78;;;2.45;51.99